Codsall, United Kingdom
Current Conditions -  °F | °C
As of 8:50 AM on Saturday 22 Nov 2014 (Local Time) from EGBB Reporting Station
Haze Haze  
Wind Chill: 54°   Ceiling: 2400
Heat Index: 54°   Visibility: 3mi
Dew Point: 54°   Wind: 7mph
Humidity: 100%   Direction: 160°SSE
Pressure: 29.83"   Gusts: NA
Location:  52.63°N, 2.2°W
Report Text: EGBB 220850Z 16006KT 5000 BR BKN024 12/12 Q1010
Loading
Personal Weather Stations






























Interactive Weather Map New forecast layout! Learn more

10-Day Weather Forecast

Advertisements
Track Severe Weather on mobile